sensor_id;sensor_type;location;lat;lon;timestamp;temperature;humidity
6841;DHT22;3458;53.678;14.080;2023-01-05T00:01:34;9.40;99.90
6841;DHT22;3458;53.678;14.080;2023-01-05T00:03:59;9.40;99.90
6841;DHT22;3458;53.678;14.080;2023-01-05T00:06:25;9.40;99.90
6841;DHT22;3458;53.678;14.080;2023-01-05T00:08:51;9.40;99.90
6841;DHT22;3458;53.678;14.080;2023-01-05T00:11:19;9.40;99.90
6841;DHT22;3458;53.678;14.080;2023-01-05T00:14:03;9.40;99.90
6841;DHT22;3458;53.678;14.080;2023-01-05T00:16:48;9.40;99.90
6841;DHT22;3458;53.678;14.080;2023-01-05T00:19:33;9.40;99.90
6841;DHT22;3458;53.678;14.080;2023-01-05T00:22:22;9.40;99.90
6841;DHT22;3458;53.678;14.080;2023-01-05T00:25:11;9.40;99.90
6841;DHT22;3458;53.678;14.080;2023-01-05T00:27:38;9.40;99.90
6841;DHT22;3458;53.678;14.080;2023-01-05T00:30:05;9.40;99.90
6841;DHT22;3458;53.678;14.080;2023-01-05T00:32:31;9.40;99.90
6841;DHT22;3458;53.678;14.080;2023-01-05T00:34:57;9.40;99.90
6841;DHT22;3458;53.678;14.080;2023-01-05T00:37:25;9.40;99.90
6841;DHT22;3458;53.678;14.080;2023-01-05T00:39:51;9.40;99.90
6841;DHT22;3458;53.678;14.080;2023-01-05T00:42:17;9.40;99.90
6841;DHT22;3458;53.678;14.080;2023-01-05T00:44:43;9.40;99.90
6841;DHT22;3458;53.678;14.080;2023-01-05T00:47:08;9.40;99.90
6841;DHT22;3458;53.678;14.080;2023-01-05T00:49:34;9.40;99.90
6841;DHT22;3458;53.678;14.080;2023-01-05T00:52:00;9.40;99.90
6841;DHT22;3458;53.678;14.080;2023-01-05T00:54:25;9.40;99.90
6841;DHT22;3458;53.678;14.080;2023-01-05T00:56:51;9.40;99.90
6841;DHT22;3458;53.678;14.080;2023-01-05T00:59:20;9.40;99.90
6841;DHT22;3458;53.678;14.080;2023-01-05T01:01:47;9.40;99.90
6841;DHT22;3458;53.678;14.080;2023-01-05T01:04:13;9.40;99.90
6841;DHT22;3458;53.678;14.080;2023-01-05T01:06:41;9.40;99.90
6841;DHT22;3458;53.678;14.080;2023-01-05T01:09:07;9.40;99.90
6841;DHT22;3458;53.678;14.080;2023-01-05T01:11:36;9.40;99.90
6841;DHT22;3458;53.678;14.080;2023-01-05T01:14:04;9.40;99.90
6841;DHT22;3458;53.678;14.080;2023-01-05T01:16:30;9.40;99.90
6841;DHT22;3458;53.678;14.080;2023-01-05T01:18:56;9.40;99.90
6841;DHT22;3458;53.678;14.080;2023-01-05T01:21:22;9.40;99.90
6841;DHT22;3458;53.678;14.080;2023-01-05T01:23:47;9.40;99.90
6841;DHT22;3458;53.678;14.080;2023-01-05T01:26:13;9.40;99.90
6841;DHT22;3458;53.678;14.080;2023-01-05T01:28:39;9.40;99.90
6841;DHT22;3458;53.678;14.080;2023-01-05T01:31:05;9.40;99.90
6841;DHT22;3458;53.678;14.080;2023-01-05T01:33:31;9.40;99.90
6841;DHT22;3458;53.678;14.080;2023-01-05T01:36:03;9.40;99.90
6841;DHT22;3458;53.678;14.080;2023-01-05T01:38:38;9.40;99.90
6841;DHT22;3458;53.678;14.080;2023-01-05T01:41:04;9.40;99.90
6841;DHT22;3458;53.678;14.080;2023-01-05T01:43:46;9.50;99.90
6841;DHT22;3458;53.678;14.080;2023-01-05T01:46:14;9.50;99.90
6841;DHT22;3458;53.678;14.080;2023-01-05T01:48:48;9.50;99.90
6841;DHT22;3458;53.678;14.080;2023-01-05T01:51:40;9.50;99.90
6841;DHT22;3458;53.678;14.080;2023-01-05T01:54:07;9.50;99.90
6841;DHT22;3458;53.678;14.080;2023-01-05T01:56:40;9.50;99.90
6841;DHT22;3458;53.678;14.080;2023-01-05T01:59:07;9.50;99.90
6841;DHT22;3458;53.678;14.080;2023-01-05T02:01:33;9.50;99.90
6841;DHT22;3458;53.678;14.080;2023-01-05T02:04:00;9.50;99.90
6841;DHT22;3458;53.678;14.080;2023-01-05T02:06:26;9.50;99.90
6841;DHT22;3458;53.678;14.080;2023-01-05T02:08:52;9.60;99.90
6841;DHT22;3458;53.678;14.080;2023-01-05T02:14:20;9.60;99.90
6841;DHT22;3458;53.678;14.080;2023-01-05T02:26:11;9.60;99.90
6841;DHT22;3458;53.678;14.080;2023-01-05T02:31:26;9.60;99.90
6841;DHT22;3458;53.678;14.080;2023-01-05T02:34:13;9.50;99.90
6841;DHT22;3458;53.678;14.080;2023-01-05T02:36:51;9.50;99.90
6841;DHT22;3458;53.678;14.080;2023-01-05T02:42:22;9.50;99.90
6841;DHT22;3458;53.678;14.080;2023-01-05T02:44:48;9.40;99.90
6841;DHT22;3458;53.678;14.080;2023-01-05T02:50:01;9.40;99.90
6841;DHT22;3458;53.678;14.080;2023-01-05T02:55:10;9.40;99.90
6841;DHT22;3458;53.678;14.080;2023-01-05T02:57:59;9.40;99.90
6841;DHT22;3458;53.678;14.080;2023-01-05T03:00:32;9.40;99.90
6841;DHT22;3458;53.678;14.080;2023-01-05T03:03:09;9.30;99.90
6841;DHT22;3458;53.678;14.080;2023-01-05T03:05:42;9.30;99.90
6841;DHT22;3458;53.678;14.080;2023-01-05T03:08:11;9.30;99.90
6841;DHT22;3458;53.678;14.080;2023-01-05T03:11:02;9.20;99.90
6841;DHT22;3458;53.678;14.080;2023-01-05T03:13:51;9.30;99.90
6841;DHT22;3458;53.678;14.080;2023-01-05T03:16:23;9.20;99.90
6841;DHT22;3458;53.678;14.080;2023-01-05T03:18:52;9.20;99.90
6841;DHT22;3458;53.678;14.080;2023-01-05T03:21:38;9.20;99.90
6841;DHT22;3458;53.678;14.080;2023-01-05T03:24:22;9.20;99.90
6841;DHT22;3458;53.678;14.080;2023-01-05T03:27:06;9.10;99.90
6841;DHT22;3458;53.678;14.080;2023-01-05T03:29:52;9.10;99.90
6841;DHT22;3458;53.678;14.080;2023-01-05T03:32:45;9.10;99.90
6841;DHT22;3458;53.678;14.080;2023-01-05T03:35:33;9.10;99.90
6841;DHT22;3458;53.678;14.080;2023-01-05T03:38:42;9.00;99.90
6841;DHT22;3458;53.678;14.080;2023-01-05T03:41:10;9.00;99.90
6841;DHT22;3458;53.678;14.080;2023-01-05T03:43:38;8.90;99.90
6841;DHT22;3458;53.678;14.080;2023-01-05T03:46:13;8.90;99.90
6841;DHT22;3458;53.678;14.080;2023-01-05T03:48:40;8.90;99.90
6841;DHT22;3458;53.678;14.080;2023-01-05T03:51:06;8.90;99.90
6841;DHT22;3458;53.678;14.080;2023-01-05T03:53:32;8.90;99.90
6841;DHT22;3458;53.678;14.080;2023-01-05T03:55:57;8.80;99.90
6841;DHT22;3458;53.678;14.080;2023-01-05T03:58:23;8.80;99.90
6841;DHT22;3458;53.678;14.080;2023-01-05T04:00:49;8.70;99.90
6841;DHT22;3458;53.678;14.080;2023-01-05T04:03:14;8.70;99.90
6841;DHT22;3458;53.678;14.080;2023-01-05T04:05:40;8.70;99.90
6841;DHT22;3458;53.678;14.080;2023-01-05T04:08:05;8.70;99.90
6841;DHT22;3458;53.678;14.080;2023-01-05T04:10:31;8.70;99.90
6841;DHT22;3458;53.678;14.080;2023-01-05T04:12:56;8.70;99.90
6841;DHT22;3458;53.678;14.080;2023-01-05T04:15:22;8.70;99.90
6841;DHT22;3458;53.678;14.080;2023-01-05T04:17:47;8.60;99.90
6841;DHT22;3458;53.678;14.080;2023-01-05T04:20:13;8.60;99.90
6841;DHT22;3458;53.678;14.080;2023-01-05T04:22:39;8.60;99.90
6841;DHT22;3458;53.678;14.080;2023-01-05T04:25:04;8.60;99.90
6841;DHT22;3458;53.678;14.080;2023-01-05T04:27:30;8.60;99.90
6841;DHT22;3458;53.678;14.080;2023-01-05T04:29:56;8.60;99.90
6841;DHT22;3458;53.678;14.080;2023-01-05T04:32:21;8.50;99.90
6841;DHT22;3458;53.678;14.080;2023-01-05T04:34:47;8.50;99.90
6841;DHT22;3458;53.678;14.080;2023-01-05T04:37:12;8.50;99.90
6841;DHT22;3458;53.678;14.080;2023-01-05T04:39:38;8.50;99.90
6841;DHT22;3458;53.678;14.080;2023-01-05T04:42:03;8.50;99.90
6841;DHT22;3458;53.678;14.080;2023-01-05T04:44:29;8.40;99.90
6841;DHT22;3458;53.678;14.080;2023-01-05T04:46:54;8.40;99.90
6841;DHT22;3458;53.678;14.080;2023-01-05T04:49:20;8.50;99.90
6841;DHT22;3458;53.678;14.080;2023-01-05T04:51:45;8.50;99.90
6841;DHT22;3458;53.678;14.080;2023-01-05T04:54:11;8.50;99.90
6841;DHT22;3458;53.678;14.080;2023-01-05T04:56:36;8.50;99.90
6841;DHT22;3458;53.678;14.080;2023-01-05T04:59:02;8.50;99.90
6841;DHT22;3458;53.678;14.080;2023-01-05T05:01:27;8.50;99.90
6841;DHT22;3458;53.678;14.080;2023-01-05T05:03:53;8.50;99.90
6841;DHT22;3458;53.678;14.080;2023-01-05T05:06:18;8.50;99.90
6841;DHT22;3458;53.678;14.080;2023-01-05T05:08:44;8.50;99.90
6841;DHT22;3458;53.678;14.080;2023-01-05T05:11:10;8.40;99.90
6841;DHT22;3458;53.678;14.080;2023-01-05T05:13:35;8.40;99.90
6841;DHT22;3458;53.678;14.080;2023-01-05T05:16:01;8.40;99.90
6841;DHT22;3458;53.678;14.080;2023-01-05T05:18:26;8.40;99.90
6841;DHT22;3458;53.678;14.080;2023-01-05T05:20:52;8.40;99.90
6841;DHT22;3458;53.678;14.080;2023-01-05T05:23:18;8.50;99.90
6841;DHT22;3458;53.678;14.080;2023-01-05T05:25:44;8.50;99.90
6841;DHT22;3458;53.678;14.080;2023-01-05T05:28:09;8.50;99.90
6841;DHT22;3458;53.678;14.080;2023-01-05T05:30:36;8.50;99.90
6841;DHT22;3458;53.678;14.080;2023-01-05T05:33:02;8.50;99.90
6841;DHT22;3458;53.678;14.080;2023-01-05T05:35:28;8.50;99.90
6841;DHT22;3458;53.678;14.080;2023-01-05T05:37:54;8.50;99.90
6841;DHT22;3458;53.678;14.080;2023-01-05T05:40:19;8.50;99.90
6841;DHT22;3458;53.678;14.080;2023-01-05T05:42:45;8.50;99.90
6841;DHT22;3458;53.678;14.080;2023-01-05T05:45:10;8.50;99.90
6841;DHT22;3458;53.678;14.080;2023-01-05T05:47:36;8.50;99.90
6841;DHT22;3458;53.678;14.080;2023-01-05T05:50:02;8.50;99.90
6841;DHT22;3458;53.678;14.080;2023-01-05T05:52:27;8.60;99.90
6841;DHT22;3458;53.678;14.080;2023-01-05T05:54:53;8.60;99.90
6841;DHT22;3458;53.678;14.080;2023-01-05T05:57:18;8.60;99.90
6841;DHT22;3458;53.678;14.080;2023-01-05T05:59:44;8.60;99.90
6841;DHT22;3458;53.678;14.080;2023-01-05T06:02:09;8.60;99.90
6841;DHT22;3458;53.678;14.080;2023-01-05T06:04:35;8.60;99.90
6841;DHT22;3458;53.678;14.080;2023-01-05T06:07:00;8.70;99.90
6841;DHT22;3458;53.678;14.080;2023-01-05T06:09:26;8.70;99.90
6841;DHT22;3458;53.678;14.080;2023-01-05T06:11:51;8.70;99.90
6841;DHT22;3458;53.678;14.080;2023-01-05T06:14:19;8.70;99.90
6841;DHT22;3458;53.678;14.080;2023-01-05T06:16:45;8.70;99.90
6841;DHT22;3458;53.678;14.080;2023-01-05T06:19:11;8.70;99.90
6841;DHT22;3458;53.678;14.080;2023-01-05T06:21:36;8.70;99.90
6841;DHT22;3458;53.678;14.080;2023-01-05T06:24:02;8.70;99.90
6841;DHT22;3458;53.678;14.080;2023-01-05T06:26:27;8.70;99.90
6841;DHT22;3458;53.678;14.080;2023-01-05T06:28:53;8.70;99.90
6841;DHT22;3458;53.678;14.080;2023-01-05T06:31:19;8.70;99.90
6841;DHT22;3458;53.678;14.080;2023-01-05T06:33:44;8.70;99.90
6841;DHT22;3458;53.678;14.080;2023-01-05T06:36:10;8.60;99.90
6841;DHT22;3458;53.678;14.080;2023-01-05T06:38:35;8.60;99.90
6841;DHT22;3458;53.678;14.080;2023-01-05T06:41:01;8.60;99.90
6841;DHT22;3458;53.678;14.080;2023-01-05T06:43:27;8.60;99.90
6841;DHT22;3458;53.678;14.080;2023-01-05T06:45:52;8.70;99.90
6841;DHT22;3458;53.678;14.080;2023-01-05T06:48:18;8.70;99.90
6841;DHT22;3458;53.678;14.080;2023-01-05T06:50:43;8.70;99.90
6841;DHT22;3458;53.678;14.080;2023-01-05T06:53:09;8.70;99.90
6841;DHT22;3458;53.678;14.080;2023-01-05T06:55:34;8.70;99.90
6841;DHT22;3458;53.678;14.080;2023-01-05T06:58:00;8.70;99.90
6841;DHT22;3458;53.678;14.080;2023-01-05T07:00:25;8.60;99.90
6841;DHT22;3458;53.678;14.080;2023-01-05T07:02:51;8.60;99.90
6841;DHT22;3458;53.678;14.080;2023-01-05T07:05:17;8.60;99.90
6841;DHT22;3458;53.678;14.080;2023-01-05T07:07:42;8.60;99.90
6841;DHT22;3458;53.678;14.080;2023-01-05T07:10:08;8.60;99.90
6841;DHT22;3458;53.678;14.080;2023-01-05T07:12:33;8.60;99.90
6841;DHT22;3458;53.678;14.080;2023-01-05T07:14:59;8.60;99.90
6841;DHT22;3458;53.678;14.080;2023-01-05T07:17:25;8.60;99.90
6841;DHT22;3458;53.678;14.080;2023-01-05T07:19:51;8.60;99.90
6841;DHT22;3458;53.678;14.080;2023-01-05T07:22:16;8.60;99.90
6841;DHT22;3458;53.678;14.080;2023-01-05T07:24:42;8.60;99.90
6841;DHT22;3458;53.678;14.080;2023-01-05T07:27:07;8.60;99.90
6841;DHT22;3458;53.678;14.080;2023-01-05T07:29:33;8.60;99.90
6841;DHT22;3458;53.678;14.080;2023-01-05T07:31:59;8.60;99.90
6841;DHT22;3458;53.678;14.080;2023-01-05T07:34:24;8.60;99.90
6841;DHT22;3458;53.678;14.080;2023-01-05T07:36:50;8.60;99.90
6841;DHT22;3458;53.678;14.080;2023-01-05T07:39:15;8.60;99.90
6841;DHT22;3458;53.678;14.080;2023-01-05T07:41:42;8.60;99.90
6841;DHT22;3458;53.678;14.080;2023-01-05T07:44:07;8.60;99.90
6841;DHT22;3458;53.678;14.080;2023-01-05T07:46:33;8.60;99.90
6841;DHT22;3458;53.678;14.080;2023-01-05T07:49:00;8.60;99.90
6841;DHT22;3458;53.678;14.080;2023-01-05T07:51:25;8.60;99.90
6841;DHT22;3458;53.678;14.080;2023-01-05T07:53:51;8.60;99.90
6841;DHT22;3458;53.678;14.080;2023-01-05T07:56:17;8.60;99.90
6841;DHT22;3458;53.678;14.080;2023-01-05T07:58:43;8.60;99.90
6841;DHT22;3458;53.678;14.080;2023-01-05T08:01:11;8.60;99.90
6841;DHT22;3458;53.678;14.080;2023-01-05T08:03:37;8.60;99.90
6841;DHT22;3458;53.678;14.080;2023-01-05T08:06:05;8.60;99.90
6841;DHT22;3458;53.678;14.080;2023-01-05T08:08:30;8.60;99.90
6841;DHT22;3458;53.678;14.080;2023-01-05T08:10:56;8.50;99.90
6841;DHT22;3458;53.678;14.080;2023-01-05T08:13:21;8.50;99.90
6841;DHT22;3458;53.678;14.080;2023-01-05T08:16:06;8.50;99.90
6841;DHT22;3458;53.678;14.080;2023-01-05T08:18:31;8.50;99.90
6841;DHT22;3458;53.678;14.080;2023-01-05T08:20:59;8.50;99.90
6841;DHT22;3458;53.678;14.080;2023-01-05T08:23:29;8.50;99.90
6841;DHT22;3458;53.678;14.080;2023-01-05T08:25:55;8.40;99.90
6841;DHT22;3458;53.678;14.080;2023-01-05T08:28:22;8.40;99.90
6841;DHT22;3458;53.678;14.080;2023-01-05T08:30:48;8.40;99.90
6841;DHT22;3458;53.678;14.080;2023-01-05T08:33:14;8.40;99.90
6841;DHT22;3458;53.678;14.080;2023-01-05T08:35:40;8.30;99.90
6841;DHT22;3458;53.678;14.080;2023-01-05T08:38:06;8.30;99.90
6841;DHT22;3458;53.678;14.080;2023-01-05T08:40:31;8.30;99.90
6841;DHT22;3458;53.678;14.080;2023-01-05T08:42:57;8.30;99.90
6841;DHT22;3458;53.678;14.080;2023-01-05T08:45:22;8.30;99.90
6841;DHT22;3458;53.678;14.080;2023-01-05T08:47:48;8.30;99.90
6841;DHT22;3458;53.678;14.080;2023-01-05T08:50:14;8.30;99.90
6841;DHT22;3458;53.678;14.080;2023-01-05T08:52:40;8.30;99.90
6841;DHT22;3458;53.678;14.080;2023-01-05T08:55:05;8.30;99.90
6841;DHT22;3458;53.678;14.080;2023-01-05T08:57:32;8.40;99.90
6841;DHT22;3458;53.678;14.080;2023-01-05T08:59:58;8.40;99.90
6841;DHT22;3458;53.678;14.080;2023-01-05T09:02:25;8.40;99.90
6841;DHT22;3458;53.678;14.080;2023-01-05T09:04:50;8.40;99.90
6841;DHT22;3458;53.678;14.080;2023-01-05T09:07:16;8.40;99.90
6841;DHT22;3458;53.678;14.080;2023-01-05T09:09:42;8.50;99.90
6841;DHT22;3458;53.678;14.080;2023-01-05T09:12:07;8.40;99.90
6841;DHT22;3458;53.678;14.080;2023-01-05T09:14:33;8.50;99.90
6841;DHT22;3458;53.678;14.080;2023-01-05T09:16:59;8.50;99.90
6841;DHT22;3458;53.678;14.080;2023-01-05T09:19:25;8.50;99.90
6841;DHT22;3458;53.678;14.080;2023-01-05T09:21:51;8.50;99.90
6841;DHT22;3458;53.678;14.080;2023-01-05T09:24:17;8.50;99.90
6841;DHT22;3458;53.678;14.080;2023-01-05T09:26:42;8.50;99.90
6841;DHT22;3458;53.678;14.080;2023-01-05T09:29:09;8.40;99.90
6841;DHT22;3458;53.678;14.080;2023-01-05T09:31:34;8.40;99.90
6841;DHT22;3458;53.678;14.080;2023-01-05T09:34:00;8.40;99.90
6841;DHT22;3458;53.678;14.080;2023-01-05T09:36:25;8.40;99.90
6841;DHT22;3458;53.678;14.080;2023-01-05T09:38:52;8.40;99.90
6841;DHT22;3458;53.678;14.080;2023-01-05T09:43:52;8.30;99.90
6841;DHT22;3458;53.678;14.080;2023-01-05T09:46:24;8.30;99.90
6841;DHT22;3458;53.678;14.080;2023-01-05T09:48:56;8.10;99.90
6841;DHT22;3458;53.678;14.080;2023-01-05T09:51:23;8.10;99.90
6841;DHT22;3458;53.678;14.080;2023-01-05T09:53:49;8.00;99.90
6841;DHT22;3458;53.678;14.080;2023-01-05T09:56:28;8.00;99.90
6841;DHT22;3458;53.678;14.080;2023-01-05T09:59:37;8.00;99.90
6841;DHT22;3458;53.678;14.080;2023-01-05T10:02:31;8.00;99.90
6841;DHT22;3458;53.678;14.080;2023-01-05T10:04:58;8.00;99.90
6841;DHT22;3458;53.678;14.080;2023-01-05T10:07:33;8.00;99.90
6841;DHT22;3458;53.678;14.080;2023-01-05T10:10:07;8.00;99.90
6841;DHT22;3458;53.678;14.080;2023-01-05T10:12:46;7.90;99.90
6841;DHT22;3458;53.678;14.080;2023-01-05T10:15:33;7.90;99.90
6841;DHT22;3458;53.678;14.080;2023-01-05T10:18:11;7.80;99.90
6841;DHT22;3458;53.678;14.080;2023-01-05T10:23:54;7.90;99.90
6841;DHT22;3458;53.678;14.080;2023-01-05T10:29:10;7.80;99.90
6841;DHT22;3458;53.678;14.080;2023-01-05T10:31:44;7.70;99.90
6841;DHT22;3458;53.678;14.080;2023-01-05T10:34:23;7.70;99.90
6841;DHT22;3458;53.678;14.080;2023-01-05T10:39:52;7.60;99.90
6841;DHT22;3458;53.678;14.080;2023-01-05T10:45:16;7.60;99.90
6841;DHT22;3458;53.678;14.080;2023-01-05T10:47:42;7.60;99.90
6841;DHT22;3458;53.678;14.080;2023-01-05T10:50:34;7.60;99.90
6841;DHT22;3458;53.678;14.080;2023-01-05T10:53:15;7.70;99.90
6841;DHT22;3458;53.678;14.080;2023-01-05T10:55:49;7.60;99.90
6841;DHT22;3458;53.678;14.080;2023-01-05T10:58:33;7.50;99.90
6841;DHT22;3458;53.678;14.080;2023-01-05T11:03:47;7.20;99.90
6841;DHT22;3458;53.678;14.080;2023-01-05T11:06:32;7.20;99.90
6841;DHT22;3458;53.678;14.080;2023-01-05T11:09:20;7.00;99.90
6841;DHT22;3458;53.678;14.080;2023-01-05T11:14:19;6.90;99.90
6841;DHT22;3458;53.678;14.080;2023-01-05T11:16:48;6.80;99.90
6841;DHT22;3458;53.678;14.080;2023-01-05T11:19:16;6.70;99.90
6841;DHT22;3458;53.678;14.080;2023-01-05T11:21:44;6.70;99.90
6841;DHT22;3458;53.678;14.080;2023-01-05T11:26:50;6.40;99.90
6841;DHT22;3458;53.678;14.080;2023-01-05T11:29:16;6.40;99.90
6841;DHT22;3458;53.678;14.080;2023-01-05T11:32:01;6.40;99.90
6841;DHT22;3458;53.678;14.080;2023-01-05T11:34:43;6.30;99.90
6841;DHT22;3458;53.678;14.080;2023-01-05T11:37:25;6.30;99.90
6841;DHT22;3458;53.678;14.080;2023-01-05T11:39:56;6.30;99.90
6841;DHT22;3458;53.678;14.080;2023-01-05T11:44:49;6.30;99.90
6841;DHT22;3458;53.678;14.080;2023-01-05T11:47:29;6.30;99.90
6841;DHT22;3458;53.678;14.080;2023-01-05T11:50:05;6.20;99.90
6841;DHT22;3458;53.678;14.080;2023-01-05T11:52:40;6.20;99.90
6841;DHT22;3458;53.678;14.080;2023-01-05T11:57:44;6.20;99.90
6841;DHT22;3458;53.678;14.080;2023-01-05T12:03:58;6.20;99.90
6841;DHT22;3458;53.678;14.080;2023-01-05T12:09:37;6.20;99.90
6841;DHT22;3458;53.678;14.080;2023-01-05T12:12:10;6.30;99.90
6841;DHT22;3458;53.678;14.080;2023-01-05T12:17:33;6.20;99.90
6841;DHT22;3458;53.678;14.080;2023-01-05T12:20:30;6.30;99.90
6841;DHT22;3458;53.678;14.080;2023-01-05T12:29:15;6.30;99.90
6841;DHT22;3458;53.678;14.080;2023-01-05T12:38:09;6.10;99.90
6841;DHT22;3458;53.678;14.080;2023-01-05T12:41:13;6.10;99.90
6841;DHT22;3458;53.678;14.080;2023-01-05T12:49:43;6.10;99.90
6841;DHT22;3458;53.678;14.080;2023-01-05T12:54:46;6.20;99.90
6841;DHT22;3458;53.678;14.080;2023-01-05T12:57:21;6.10;99.90
6841;DHT22;3458;53.678;14.080;2023-01-05T13:00:05;6.20;99.90
6841;DHT22;3458;53.678;14.080;2023-01-05T13:02:37;6.20;99.90
6841;DHT22;3458;53.678;14.080;2023-01-05T13:07:39;6.10;99.90
6841;DHT22;3458;53.678;14.080;2023-01-05T13:10:17;6.20;99.90
6841;DHT22;3458;53.678;14.080;2023-01-05T13:12:43;6.20;99.90
6841;DHT22;3458;53.678;14.080;2023-01-05T13:15:20;6.20;99.90
6841;DHT22;3458;53.678;14.080;2023-01-05T13:17:48;6.20;99.90
6841;DHT22;3458;53.678;14.080;2023-01-05T13:20:38;6.20;99.90
6841;DHT22;3458;53.678;14.080;2023-01-05T13:23:14;6.20;99.90
6841;DHT22;3458;53.678;14.080;2023-01-05T13:25:49;6.20;99.90
6841;DHT22;3458;53.678;14.080;2023-01-05T13:28:17;6.10;99.90
6841;DHT22;3458;53.678;14.080;2023-01-05T13:33:47;6.10;99.90
6841;DHT22;3458;53.678;14.080;2023-01-05T13:36:55;6.10;99.90
6841;DHT22;3458;53.678;14.080;2023-01-05T13:42:23;6.00;99.90
6841;DHT22;3458;53.678;14.080;2023-01-05T13:50:34;5.90;99.90
6841;DHT22;3458;53.678;14.080;2023-01-05T13:53:15;5.90;99.90
6841;DHT22;3458;53.678;14.080;2023-01-05T13:55:55;5.80;99.90
6841;DHT22;3458;53.678;14.080;2023-01-05T13:58:41;5.90;99.90
6841;DHT22;3458;53.678;14.080;2023-01-05T14:01:17;6.00;99.90
6841;DHT22;3458;53.678;14.080;2023-01-05T14:03:51;6.00;99.90
6841;DHT22;3458;53.678;14.080;2023-01-05T14:06:27;6.00;99.90
6841;DHT22;3458;53.678;14.080;2023-01-05T14:09:00;6.00;99.90
6841;DHT22;3458;53.678;14.080;2023-01-05T14:11:27;5.90;99.90
6841;DHT22;3458;53.678;14.080;2023-01-05T14:14:05;5.90;99.90
6841;DHT22;3458;53.678;14.080;2023-01-05T14:19:22;5.90;99.90
6841;DHT22;3458;53.678;14.080;2023-01-05T14:24:37;5.90;99.90
6841;DHT22;3458;53.678;14.080;2023-01-05T14:27:09;6.00;99.90
6841;DHT22;3458;53.678;14.080;2023-01-05T14:32:30;6.00;99.90
6841;DHT22;3458;53.678;14.080;2023-01-05T14:35:07;6.10;99.90
6841;DHT22;3458;53.678;14.080;2023-01-05T14:37:52;6.00;99.90
6841;DHT22;3458;53.678;14.080;2023-01-05T14:40:42;5.90;99.90
6841;DHT22;3458;53.678;14.080;2023-01-05T14:43:24;6.00;99.90
6841;DHT22;3458;53.678;14.080;2023-01-05T14:46:07;5.90;99.90
6841;DHT22;3458;53.678;14.080;2023-01-05T14:48:38;6.00;99.90
6841;DHT22;3458;53.678;14.080;2023-01-05T14:51:22;5.90;99.90
6841;DHT22;3458;53.678;14.080;2023-01-05T14:53:55;5.90;99.90
6841;DHT22;3458;53.678;14.080;2023-01-05T14:56:26;5.90;99.90
6841;DHT22;3458;53.678;14.080;2023-01-05T15:01:48;5.90;99.90
6841;DHT22;3458;53.678;14.080;2023-01-05T15:04:35;5.80;99.90
6841;DHT22;3458;53.678;14.080;2023-01-05T15:07:41;5.90;99.90
6841;DHT22;3458;53.678;14.080;2023-01-05T15:10:16;5.90;99.90
6841;DHT22;3458;53.678;14.080;2023-01-05T15:12:53;5.80;99.90
6841;DHT22;3458;53.678;14.080;2023-01-05T15:16:10;5.90;99.90
6841;DHT22;3458;53.678;14.080;2023-01-05T15:18:45;5.90;99.90
6841;DHT22;3458;53.678;14.080;2023-01-05T15:21:38;5.70;99.90
6841;DHT22;3458;53.678;14.080;2023-01-05T15:30:32;5.80;99.90
6841;DHT22;3458;53.678;14.080;2023-01-05T15:33:30;5.90;99.90
6841;DHT22;3458;53.678;14.080;2023-01-05T15:36:04;5.70;99.90
6841;DHT22;3458;53.678;14.080;2023-01-05T15:38:40;5.60;99.90
6841;DHT22;3458;53.678;14.080;2023-01-05T15:41:09;5.50;99.90
6841;DHT22;3458;53.678;14.080;2023-01-05T15:43:38;5.50;99.90
6841;DHT22;3458;53.678;14.080;2023-01-05T15:46:04;5.60;99.90
6841;DHT22;3458;53.678;14.080;2023-01-05T15:48:42;5.60;99.90
6841;DHT22;3458;53.678;14.080;2023-01-05T15:51:08;5.60;99.90
6841;DHT22;3458;53.678;14.080;2023-01-05T15:53:39;5.60;99.90
6841;DHT22;3458;53.678;14.080;2023-01-05T15:56:22;5.60;99.90
6841;DHT22;3458;53.678;14.080;2023-01-05T15:58:48;5.60;99.90
6841;DHT22;3458;53.678;14.080;2023-01-05T16:01:14;5.50;99.90
6841;DHT22;3458;53.678;14.080;2023-01-05T16:03:44;5.40;99.90
6841;DHT22;3458;53.678;14.080;2023-01-05T16:08:46;5.30;99.90
6841;DHT22;3458;53.678;14.080;2023-01-05T16:11:16;5.40;99.90
6841;DHT22;3458;53.678;14.080;2023-01-05T16:13:53;5.40;99.90
6841;DHT22;3458;53.678;14.080;2023-01-05T16:19:01;5.40;99.90
6841;DHT22;3458;53.678;14.080;2023-01-05T16:26:41;5.40;99.90
6841;DHT22;3458;53.678;14.080;2023-01-05T16:29:31;5.50;99.90
6841;DHT22;3458;53.678;14.080;2023-01-05T16:31:57;5.50;99.90
6841;DHT22;3458;53.678;14.080;2023-01-05T16:34:22;5.50;99.90
6841;DHT22;3458;53.678;14.080;2023-01-05T16:37:13;5.50;99.90
6841;DHT22;3458;53.678;14.080;2023-01-05T16:39:41;5.50;99.90
6841;DHT22;3458;53.678;14.080;2023-01-05T16:42:18;5.40;99.90
6841;DHT22;3458;53.678;14.080;2023-01-05T16:44:58;5.40;99.90
6841;DHT22;3458;53.678;14.080;2023-01-05T16:47:44;5.30;99.90
6841;DHT22;3458;53.678;14.080;2023-01-05T16:52:58;5.30;99.90
6841;DHT22;3458;53.678;14.080;2023-01-05T16:55:33;5.40;99.90
6841;DHT22;3458;53.678;14.080;2023-01-05T16:58:03;5.40;99.90
6841;DHT22;3458;53.678;14.080;2023-01-05T17:03:02;5.40;99.90
6841;DHT22;3458;53.678;14.080;2023-01-05T17:05:31;5.40;99.90
6841;DHT22;3458;53.678;14.080;2023-01-05T17:08:06;5.40;99.90
6841;DHT22;3458;53.678;14.080;2023-01-05T17:10:32;5.40;99.90
6841;DHT22;3458;53.678;14.080;2023-01-05T17:13:05;5.40;99.90
6841;DHT22;3458;53.678;14.080;2023-01-05T17:15:33;5.30;99.90
6841;DHT22;3458;53.678;14.080;2023-01-05T17:18:00;5.30;99.90
6841;DHT22;3458;53.678;14.080;2023-01-05T17:20:41;5.40;99.90
6841;DHT22;3458;53.678;14.080;2023-01-05T17:23:19;5.30;99.90
6841;DHT22;3458;53.678;14.080;2023-01-05T17:25:45;5.30;99.90
6841;DHT22;3458;53.678;14.080;2023-01-05T17:28:10;5.30;99.90
6841;DHT22;3458;53.678;14.080;2023-01-05T17:30:36;5.30;99.90
6841;DHT22;3458;53.678;14.080;2023-01-05T17:33:01;5.30;99.90
6841;DHT22;3458;53.678;14.080;2023-01-05T17:35:28;5.30;99.90
6841;DHT22;3458;53.678;14.080;2023-01-05T17:37:53;5.30;99.90
6841;DHT22;3458;53.678;14.080;2023-01-05T17:40:20;5.30;99.90
6841;DHT22;3458;53.678;14.080;2023-01-05T17:42:46;5.30;99.90
6841;DHT22;3458;53.678;14.080;2023-01-05T17:45:18;5.40;99.90
6841;DHT22;3458;53.678;14.080;2023-01-05T17:47:44;5.30;99.90
6841;DHT22;3458;53.678;14.080;2023-01-05T17:50:13;5.40;99.90
6841;DHT22;3458;53.678;14.080;2023-01-05T17:52:39;5.40;99.90
6841;DHT22;3458;53.678;14.080;2023-01-05T17:55:05;5.40;99.90
6841;DHT22;3458;53.678;14.080;2023-01-05T17:57:30;5.40;99.90
6841;DHT22;3458;53.678;14.080;2023-01-05T17:59:56;5.40;99.90
6841;DHT22;3458;53.678;14.080;2023-01-05T18:02:21;5.30;99.90
6841;DHT22;3458;53.678;14.080;2023-01-05T18:04:47;5.40;99.90
6841;DHT22;3458;53.678;14.080;2023-01-05T18:07:12;5.40;99.90
6841;DHT22;3458;53.678;14.080;2023-01-05T18:09:38;5.40;99.90
6841;DHT22;3458;53.678;14.080;2023-01-05T18:12:04;5.40;99.90
6841;DHT22;3458;53.678;14.080;2023-01-05T18:14:29;5.40;99.90
6841;DHT22;3458;53.678;14.080;2023-01-05T18:16:55;5.30;99.90
6841;DHT22;3458;53.678;14.080;2023-01-05T18:19:20;5.20;99.90
6841;DHT22;3458;53.678;14.080;2023-01-05T18:21:46;5.30;99.90
6841;DHT22;3458;53.678;14.080;2023-01-05T18:24:11;5.30;99.90
6841;DHT22;3458;53.678;14.080;2023-01-05T18:26:37;5.30;99.90
6841;DHT22;3458;53.678;14.080;2023-01-05T18:29:02;5.40;99.90
6841;DHT22;3458;53.678;14.080;2023-01-05T18:31:28;5.50;99.90
6841;DHT22;3458;53.678;14.080;2023-01-05T18:33:54;5.50;99.90